Time;durP1;ratioP1;P1;durP2;ratioP2;P2;SDS_P1;SDS_P2;PMS_P1;PMS_P2;Temp;Humidity;BMP_temperature;BMP_pressure;BME280_temperature;BME280_humidity;BME280_pressure;Samples;Min_cycle;Max_cycle;Signal;HPM_P1;HPM_P2
2023/05/18 00:00:13;;;;;;;;;;;;;;;;;;5083479;28;19921;-83
2023/05/18 00:02:41;;;;;;;;;;;;;;;;;;5089767;28;20387;-84
2023/05/18 00:05:09;;;;;;;;;;;;;;;;;;5082181;28;19924;-84
2023/05/18 00:07:41;;;;;;;;;;;;;;;;;;5088632;28;19920;-84
2023/05/18 00:10:09;;;;;;;;;;;;;;;;;;5080051;28;19944;-84
2023/05/18 00:12:41;;;;;;;;;;;;;;;;;;5083340;28;19928;-84
2023/05/18 00:15:09;;;;;;;;;;;;;;;;;;5092739;28;19935;-83
2023/05/18 00:17:36;;;;;;;;;;;;;;;;;;5081555;28;19920;-84
2023/05/18 00:20:09;;;;;;;;;;;;;;;;;;5079989;28;19920;-84
2023/05/18 00:22:37;;;;;;;;;;;;;;;;;;5089889;28;19921;-84
2023/05/18 00:25:05;;;;;;;;;;;;;;;;;;5076875;28;19927;-83
2023/05/18 00:27:38;;;;;;;;;;;;;;;;;;5080088;28;20387;-84
2023/05/18 00:30:06;;;;;;;;;;;;;;;;;;5080781;28;19927;-82
2023/05/18 00:32:35;;;;;;;;;;;;;;;;;;5089430;28;19920;-83
2023/05/18 00:35:03;;;;;;;;;;;;;;;;;;5083455;28;20372;-84
2023/05/18 00:37:30;;;;;;;;;;;;;;;;;;5080883;28;19920;-83
2023/05/18 00:39:58;;;;;;;;;;;;;;;;;;5081796;28;19920;-83
2023/05/18 00:42:25;;;;;;;;;;;;;;;;;;5094393;28;19920;-83
2023/05/18 00:44:53;;;;;;;;;;;;;;;;;;5077392;28;19921;-83
2023/05/18 00:47:21;;;;;;;;;;;;;;;;;;5080557;28;19920;-83
2023/05/18 00:49:48;;;;;;;;;;;;;;;;;;5091467;28;19920;-82
2023/05/18 00:52:17;;;;;;;;;;;;;;;;;;5087475;28;20368;-83
2023/05/18 00:54:44;;;;;;;;;;;;;;;;;;5080985;28;19924;-84
2023/05/18 00:57:12;;;;;;;;;;;;;;;;;;5080608;28;20288;-83
2023/05/18 00:59:39;;;;;;;;;;;;;;;;;;5081118;28;19924;-84
2023/05/18 01:02:08;;;;;;;;;;;;;;;;;;5082108;28;19920;-83
2023/05/18 01:04:36;;;;;;;;;;;;;;;;;;5079733;28;19919;-83
2023/05/18 01:07:05;;;;;;;;;;;;;;;;;;5083171;28;19939;-84
2023/05/18 01:09:33;;;;;;;;;;;;;;;;;;5080161;28;19924;-84
2023/05/18 01:12:01;;;;;;;;;;;;;;;;;;5103026;28;19924;-83
2023/05/18 01:14:34;;;;;;;;;;;;;;;;;;5086140;28;19927;-83
2023/05/18 01:17:04;;;;;;;;;;;;;;;;;;5098896;28;19936;-84
2023/05/18 01:19:34;;;;;;;;;;;;;;;;;;5094091;28;19920;-82
2023/05/18 01:22:02;;;;;;;;;;;;;;;;;;5085822;28;19998;-83
2023/05/18 01:24:30;;;;;;;;;;;;;;;;;;5087005;28;19927;-83
2023/05/18 01:27:03;;;;;;;;;;;;;;;;;;5086191;28;19927;-83
2023/05/18 01:29:30;;;;;;;;;;;;;;;;;;5094948;28;19924;-83
2023/05/18 01:31:58;;;;;;;;;;;;;;;;;;5080947;28;19932;-83
2023/05/18 01:34:25;;;;;;;;;;;;;;;;;;5087758;28;19932;-82
2023/05/18 01:36:53;;;;;;;;;;;;;;;;;;5076580;28;19928;-83
2023/05/18 01:39:20;;;;;;;;;;;;;;;;;;5080727;28;20376;-83
2023/05/18 01:41:48;;;;;;;;;;;;;;;;;;5084197;28;19920;-83
2023/05/18 01:44:16;;;;;;;;;;;;;;;;;;5070270;28;20369;-83
2023/05/18 01:46:43;;;;;;;;;;;;;;;;;;5080522;28;19920;-83
2023/05/18 01:49:11;;;;;;;;;;;;;;;;;;5079681;28;20380;-84
2023/05/18 01:51:39;;;;;;;;;;;;;;;;;;5080232;28;19920;-83
2023/05/18 01:54:06;;;;;;;;;;;;;;;;;;5080378;28;19920;-83
2023/05/18 01:56:39;;;;;;;;;;;;;;;;;;5083153;28;19920;-83
2023/05/18 01:59:07;;;;;;;;;;;;;;;;;;5082041;28;19920;-83
2023/05/18 02:01:34;;;;;;;;;;;;;;;;;;5078217;28;20388;-83
2023/05/18 02:04:07;;;;;;;;;;;;;;;;;;5083644;28;20411;-83
2023/05/18 02:06:35;;;;;;;;;;;;;;;;;;5086900;28;20158;-83
2023/05/18 02:09:03;;;;;;;;;;;;;;;;;;5082120;28;19920;-83
2023/05/18 02:11:31;;;;;;;;;;;;;;;;;;5090781;28;20276;-83
2023/05/18 02:14:03;;;;;;;;;;;;;;;;;;5087806;28;20307;-83
2023/05/18 02:16:31;;;;;;;;;;;;;;;;;;5083160;28;19924;-82
2023/05/18 02:19:03;;;;;;;;;;;;;;;;;;5082104;28;20391;-83
2023/05/18 02:21:33;;;;;;;;;;;;;;;;;;5082407;28;20483;-83
2023/05/18 02:24:02;;;;;;;;;;;;;;;;;;5089467;28;19920;-83
2023/05/18 02:26:30;;;;;;;;;;;;;;;;;;5081530;28;20288;-83
2023/05/18 02:29:02;;;;;;;;;;;;;;;;;;5088396;28;19921;-83
2023/05/18 02:31:30;;;;;;;;;;;;;;;;;;5076668;28;19924;-83
2023/05/18 02:34:00;;;;;;;;;;;;;;;;;;5082267;28;19921;-82
2023/05/18 02:36:38;;;;;;;;;;;;;;;;;;5085867;28;19982;-82
2023/05/18 02:39:06;;;;;;;;;;;;;;;;;;5083667;28;19927;-83
2023/05/18 02:41:39;;;;;;;;;;;;;;;;;;5083887;28;19927;-83
2023/05/18 02:44:06;;;;;;;;;;;;;;;;;;5089703;28;19920;-82
2023/05/18 02:46:39;;;;;;;;;;;;;;;;;;5080582;28;20505;-83
2023/05/18 02:49:06;;;;;;;;;;;;;;;;;;5079199;28;19921;-83
2023/05/18 02:51:34;;;;;;;;;;;;;;;;;;5085862;28;20908;-84
2023/05/18 02:54:07;;;;;;;;;;;;;;;;;;5083609;28;20384;-84
2023/05/18 02:56:40;;;;;;;;;;;;;;;;;;5083606;28;20381;-83
2023/05/18 02:59:16;;;;;;;;;;;;;;;;;;5084348;28;19920;-83
2023/05/18 03:01:49;;;;;;;;;;;;;;;;;;5100085;28;19920;-83
2023/05/18 03:04:16;;;;;;;;;;;;;;;;;;5082488;28;19924;-83
2023/05/18 03:06:51;;;;;;;;;;;;;;;;;;5083264;28;19928;-83
2023/05/18 03:09:19;;;;;;;;;;;;;;;;;;5087161;28;19920;-83
2023/05/18 03:11:47;;;;;;;;;;;;;;;;;;5083083;28;19920;-83
2023/05/18 03:14:15;;;;;;;;;;;;;;;;;;5082346;28;19931;-83
2023/05/18 03:16:43;;;;;;;;;;;;;;;;;;5086609;28;20296;-83
2023/05/18 03:19:14;;;;;;;;;;;;;;;;;;5082650;28;19921;-83
2023/05/18 03:21:42;;;;;;;;;;;;;;;;;;5083767;28;19945;-83
2023/05/18 03:24:13;;;;;;;;;;;;;;;;;;5086860;28;19931;-83
2023/05/18 03:26:48;;;;;;;;;;;;;;;;;;5084256;28;20318;-83
2023/05/18 03:29:15;;;;;;;;;;;;;;;;;;5082944;28;19938;-83
2023/05/18 03:31:43;;;;;;;;;;;;;;;;;;5087843;28;19928;-83
2023/05/18 03:34:12;;;;;;;;;;;;;;;;;;5094181;28;19920;-83
2023/05/18 03:36:39;;;;;;;;;;;;;;;;;;5081464;28;19947;-83
2023/05/18 03:39:07;;;;;;;;;;;;;;;;;;5080007;28;20357;-83
2023/05/18 03:41:40;;;;;;;;;;;;;;;;;;5082226;28;19943;-83
2023/05/18 03:44:12;;;;;;;;;;;;;;;;;;5083028;28;20303;-83
2023/05/18 03:46:40;;;;;;;;;;;;;;;;;;5076901;28;19920;-82
2023/05/18 03:49:08;;;;;;;;;;;;;;;;;;5080839;28;19921;-83
2023/05/18 03:51:39;;;;;;;;;;;;;;;;;;5077649;28;19943;-82
2023/05/18 03:54:06;;;;;;;;;;;;;;;;;;5080613;28;19951;-83
2023/05/18 03:56:35;;;;;;;;;;;;;;;;;;5084535;28;19924;-83
2023/05/18 03:59:03;;;;;;;;;;;;;;;;;;5084263;28;19943;-83
2023/05/18 04:01:31;;;;;;;;;;;;;;;;;;5084453;28;19924;-83
2023/05/18 04:04:04;;;;;;;;;;;;;;;;;;5077755;28;19930;-83
2023/05/18 04:06:36;;;;;;;;;;;;;;;;;;5096254;28;19928;-84
2023/05/18 04:09:04;;;;;;;;;;;;;;;;;;5082671;28;20372;-83
2023/05/18 04:11:32;;;;;;;;;;;;;;;;;;5080401;28;19927;-83
2023/05/18 04:14:00;;;;;;;;;;;;;;;;;;5074425;28;20487;-83
2023/05/18 04:16:27;;;;;;;;;;;;;;;;;;5078952;28;19920;-82
2023/05/18 04:18:55;;;;;;;;;;;;;;;;;;5087269;28;19924;-80
2023/05/18 04:21:23;;;;;;;;;;;;;;;;;;5089864;28;19921;-79
2023/05/18 04:23:58;;;;;;;;;;;;;;;;;;5092212;28;19935;-79
2023/05/18 04:26:26;;;;;;;;;;;;;;;;;;5099450;27;19966;-80
2023/05/18 04:28:58;;;;;;;;;;;;;;;;;;5078899;28;19920;-80
2023/05/18 04:31:26;;;;;;;;;;;;;;;;;;5083719;28;19924;-80
2023/05/18 04:33:54;;;;;;;;;;;;;;;;;;5081599;28;19927;-79
2023/05/18 04:36:24;;;;;;;;;;;;;;;;;;5079465;28;20296;-79
2023/05/18 04:38:52;;;;;;;;;;;;;;;;;;5088639;28;19931;-79
2023/05/18 04:41:21;;;;;;;;;;;;;;;;;;5076411;28;19927;-80
2023/05/18 04:43:53;;;;;;;;;;;;;;;;;;5080517;28;19920;-78
2023/05/18 04:46:26;;;;;;;;;;;;;;;;;;5080015;28;19935;-78
2023/05/18 04:48:56;;;;;;;;;;;;;;;;;;5085053;28;19920;-79
2023/05/18 04:51:24;;;;;;;;;;;;;;;;;;5085035;28;20385;-78
2023/05/18 04:53:51;;;;;;;;;;;;;;;;;;5086129;28;19924;-80
2023/05/18 04:56:21;;;;;;;;;;;;;;;;;;5083046;28;19927;-79
2023/05/18 04:58:49;;;;;;;;;;;;;;;;;;5092168;28;19927;-80
2023/05/18 05:01:17;;;;;;;;;;;;;;;;;;5080916;28;19928;-80
2023/05/18 05:03:44;;;;;;;;;;;;;;;;;;5080621;28;19920;-80
2023/05/18 05:06:12;;;;;;;;;;;;;;;;;;5088801;28;19997;-79
2023/05/18 05:08:40;;;;;;;;;;;;;;;;;;5079885;28;19920;-79
2023/05/18 05:11:12;;;;;;;;;;;;;;;;;;5076777;28;19920;-79
2023/05/18 05:13:46;;;;;;;;;;;;;;;;;;5079314;28;19920;-79
2023/05/18 05:16:13;;;;;;;;;;;;;;;;;;5081298;28;19948;-79
2023/05/18 05:18:41;;;;;;;;;;;;;;;;;;5081276;28;19924;-78
2023/05/18 05:21:08;;;;;;;;;;;;;;;;;;5080219;28;19931;-80
2023/05/18 05:23:36;;;;;;;;;;;;;;;;;;5092563;28;19924;-80
2023/05/18 05:26:03;;;;;;;;;;;;;;;;;;5092433;28;19920;-80
2023/05/18 05:28:31;;;;;;;;;;;;;;;;;;5077517;28;20470;-80
2023/05/18 05:30:59;;;;;;;;;;;;;;;;;;5079644;28;19927;-80
2023/05/18 05:33:32;;;;;;;;;;;;;;;;;;5080697;28;19924;-79
2023/05/18 05:36:04;;;;;;;;;;;;;;;;;;5079493;28;19920;-80
2023/05/18 05:38:32;;;;;;;;;;;;;;;;;;5079478;28;19924;-80
2023/05/18 05:40:59;;;;;;;;;;;;;;;;;;5078635;28;20292;-80
2023/05/18 05:43:27;;;;;;;;;;;;;;;;;;5080342;28;19930;-79
2023/05/18 05:45:55;;;;;;;;;;;;;;;;;;5081131;28;20388;-80
2023/05/18 05:48:22;;;;;;;;;;;;;;;;;;5090753;28;19927;-79
2023/05/18 05:50:50;;;;;;;;;;;;;;;;;;5080372;28;19924;-80
2023/05/18 05:53:18;;;;;;;;;;;;;;;;;;5085937;28;19924;-79
2023/05/18 05:55:47;;;;;;;;;;;;;;;;;;5079154;28;19932;-79
2023/05/18 05:58:16;;;;;;;;;;;;;;;;;;5090364;28;20284;-80
2023/05/18 06:00:51;;;;;;;;;;;;;;;;;;5077836;28;19929;-80
2023/05/18 06:03:19;;;;;;;;;;;;;;;;;;5078922;28;19932;-79
2023/05/18 06:05:48;;;;;;;;;;;;;;;;;;5086906;28;20429;-81
2023/05/18 06:08:17;;;;;;;;;;;;;;;;;;5088865;28;20372;-79
2023/05/18 06:10:46;;;;;;;;;;;;;;;;;;5086113;28;19931;-79
2023/05/18 06:13:14;;;;;;;;;;;;;;;;;;5084136;28;19920;-79
2023/05/18 06:15:55;;;;;;;;;;;;;;;;;;5084159;28;19921;-80
2023/05/18 06:18:23;;;;;;;;;;;;;;;;;;5091147;28;19920;-79
2023/05/18 06:20:54;;;;;;;;;;;;;;;;;;5087274;28;20376;-80
2023/05/18 06:23:27;;;;;;;;;;;;;;;;;;5091264;28;19925;-80
2023/05/18 06:26:03;;;;;;;;;;;;;;;;;;5089830;28;19999;-79
2023/05/18 06:28:36;;;;;;;;;;;;;;;;;;5078701;28;20459;-79
2023/05/18 06:31:21;;;;;;;;;;;;;;;;;;5087898;28;20312;-81
2023/05/18 06:34:08;;;;;;;;;;;;;;;;;;5085595;28;20078;-79
2023/05/18 06:36:36;;;;;;;;;;;;;;;;;;5101705;27;19927;-80
2023/05/18 06:39:04;;;;;;;;;;;;;;;;;;5084119;28;19920;-78
2023/05/18 06:41:32;;;;;;;;;;;;;;;;;;5089525;28;19924;-79
2023/05/18 06:44:00;;;;;;;;;;;;;;;;;;5086575;28;19927;-79
2023/05/18 06:46:33;;;;;;;;;;;;;;;;;;5096529;28;19946;-79
2023/05/18 06:49:12;;;;;;;;;;;;;;;;;;5083045;28;19929;-80
2023/05/18 06:51:40;;;;;;;;;;;;;;;;;;5083829;28;19928;-78
2023/05/18 06:54:07;;;;;;;;;;;;;;;;;;5084802;28;20288;-81
2023/05/18 06:56:35;;;;;;;;;;;;;;;;;;5082495;28;19994;-79
2023/05/18 06:59:03;;;;;;;;;;;;;;;;;;5082045;28;19927;-80
2023/05/18 07:01:30;;;;;;;;;;;;;;;;;;5083625;28;20295;-81
2023/05/18 07:04:01;;;;;;;;;;;;;;;;;;5083217;28;19935;-80
2023/05/18 07:06:28;;;;;;;;;;;;;;;;;;5078655;28;19927;-80
2023/05/18 07:08:56;;;;;;;;;;;;;;;;;;5080499;28;20511;-77
2023/05/18 07:11:24;;;;;;;;;;;;;;;;;;5086418;28;20273;-77
2023/05/18 07:13:51;;;;;;;;;;;;;;;;;;5090455;28;19920;-79
2023/05/18 07:16:19;;;;;;;;;;;;;;;;;;5085033;28;19927;-80
2023/05/18 07:18:46;;;;;;;;;;;;;;;;;;5082280;28;19927;-80
2023/05/18 07:21:14;;;;;;;;;;;;;;;;;;5085774;28;19927;-78
2023/05/18 07:23:41;;;;;;;;;;;;;;;;;;5081612;28;19920;-78
2023/05/18 07:26:10;;;;;;;;;;;;;;;;;;5080084;28;19927;-79
2023/05/18 07:28:38;;;;;;;;;;;;;;;;;;5082538;28;20296;-79
2023/05/18 07:31:06;;;;;;;;;;;;;;;;;;5081724;28;19927;-79
2023/05/18 07:33:33;;;;;;;;;;;;;;;;;;5080641;28;20052;-79
2023/05/18 07:36:01;;;;;;;;;;;;;;;;;;5077625;28;19928;-79
2023/05/18 07:38:28;;;;;;;;;;;;;;;;;;5079511;28;20464;-81
2023/05/18 07:40:56;;;;;;;;;;;;;;;;;;5081428;28;19920;-80
2023/05/18 07:43:23;;;;;;;;;;;;;;;;;;5083674;28;19924;-79
2023/05/18 07:45:51;;;;;;;;;;;;;;;;;;5078067;28;19947;-79
2023/05/18 07:48:18;;;;;;;;;;;;;;;;;;5089237;28;20341;-79
2023/05/18 07:50:46;;;;;;;;;;;;;;;;;;5079242;28;19932;-81
2023/05/18 07:53:13;;;;;;;;;;;;;;;;;;5085348;28;19924;-80
2023/05/18 07:55:41;;;;;;;;;;;;;;;;;;5090727;28;20355;-81
2023/05/18 07:58:09;;;;;;;;;;;;;;;;;;5081056;28;19920;-80
2023/05/18 08:00:37;;;;;;;;;;;;;;;;;;5081677;28;19928;-79
2023/05/18 08:03:05;;;;;;;;;;;;;;;;;;5082444;28;19920;-80
2023/05/18 08:05:33;;;;;;;;;;;;;;;;;;5079333;28;20433;-79
2023/05/18 08:08:01;;;;;;;;;;;;;;;;;;5079106;28;19928;-80
2023/05/18 08:10:29;;;;;;;;;;;;;;;;;;5080993;28;19920;-80
2023/05/18 08:13:01;;;;;;;;;;;;;;;;;;5085143;28;19931;-79
2023/05/18 08:15:29;;;;;;;;;;;;;;;;;;5078422;28;19943;-79
2023/05/18 08:17:56;;;;;;;;;;;;;;;;;;5084270;28;19943;-81
2023/05/18 08:20:24;;;;;;;;;;;;;;;;;;5084360;28;19927;-80
2023/05/18 08:22:57;;;;;;;;;;;;;;;;;;5086606;28;19920;-81
2023/05/18 08:25:24;;;;;;;;;;;;;;;;;;5086238;28;20335;-80
2023/05/18 08:27:52;;;;;;;;;;;;;;;;;;5084980;28;19927;-79
2023/05/18 08:30:20;;;;;;;;;;;;;;;;;;5106556;27;19919;-80
2023/05/18 08:32:48;;;;;;;;;;;;;;;;;;5082268;28;19927;-80
2023/05/18 08:35:21;;;;;;;;;;;;;;;;;;5091691;28;20383;-79
2023/05/18 08:37:49;;;;;;;;;;;;;;;;;;5076657;28;19936;-78
2023/05/18 08:40:16;;;;;;;;;;;;;;;;;;5087528;28;20342;-79
2023/05/18 08:42:44;;;;;;;;;;;;;;;;;;5077799;28;19920;-80
2023/05/18 08:45:12;;;;;;;;;;;;;;;;;;5083948;28;19924;-80
2023/05/18 08:47:39;;;;;;;;;;;;;;;;;;5079707;28;19920;-80
2023/05/18 08:50:14;;;;;;;;;;;;;;;;;;5087716;28;19924;-81
2023/05/18 08:52:42;;;;;;;;;;;;;;;;;;5075874;28;20307;-80
2023/05/18 08:55:11;;;;;;;;;;;;;;;;;;5086893;28;20252;-81
2023/05/18 08:57:38;;;;;;;;;;;;;;;;;;5080867;28;19927;-80
2023/05/18 09:00:06;;;;;;;;;;;;;;;;;;5086319;28;20269;-81
2023/05/18 09:02:39;;;;;;;;;;;;;;;;;;5084059;28;20331;-82
2023/05/18 09:05:07;;;;;;;;;;;;;;;;;;5080840;28;19921;-80
2023/05/18 09:07:34;;;;;;;;;;;;;;;;;;5087331;28;20399;-80
2023/05/18 09:10:02;;;;;;;;;;;;;;;;;;5102889;27;19931;-82
2023/05/18 09:12:29;;;;;;;;;;;;;;;;;;5082629;28;19920;-78
2023/05/18 09:14:57;;;;;;;;;;;;;;;;;;5083789;28;19920;-80
2023/05/18 09:17:29;;;;;;;;;;;;;;;;;;5097604;28;20289;-80
2023/05/18 09:19:57;;;;;;;;;;;;;;;;;;5082308;28;19928;-79
2023/05/18 09:22:24;;;;;;;;;;;;;;;;;;5078067;28;20296;-79
2023/05/18 09:24:52;;;;;;;;;;;;;;;;;;5082790;28;19928;-82
2023/05/18 09:27:20;;;;;;;;;;;;;;;;;;5081447;28;20458;-79
2023/05/18 09:29:48;;;;;;;;;;;;;;;;;;5080842;28;20564;-80
2023/05/18 09:32:15;;;;;;;;;;;;;;;;;;5081245;28;19987;-80
2023/05/18 09:34:48;;;;;;;;;;;;;;;;;;5081078;28;19949;-80
2023/05/18 09:37:23;;;;;;;;;;;;;;;;;;5081374;28;19920;-79
2023/05/18 09:39:50;;;;;;;;;;;;;;;;;;5079410;28;19927;-81
2023/05/18 09:42:18;;;;;;;;;;;;;;;;;;5078665;28;19920;-79
2023/05/18 09:44:45;;;;;;;;;;;;;;;;;;5086993;28;20396;-79
2023/05/18 09:47:13;;;;;;;;;;;;;;;;;;5087864;28;19923;-80
2023/05/18 09:49:40;;;;;;;;;;;;;;;;;;5077949;28;19920;-78
2023/05/18 09:52:13;;;;;;;;;;;;;;;;;;5079670;28;19936;-78
2023/05/18 09:54:41;;;;;;;;;;;;;;;;;;5081312;28;20321;-79
2023/05/18 09:57:08;;;;;;;;;;;;;;;;;;5080893;28;19919;-80
2023/05/18 09:59:36;;;;;;;;;;;;;;;;;;5087110;28;20271;-81
2023/05/18 10:02:04;;;;;;;;;;;;;;;;;;5083803;28;20538;-81
2023/05/18 10:04:32;;;;;;;;;;;;;;;;;;5091273;28;19920;-80
2023/05/18 10:07:00;;;;;;;;;;;;;;;;;;5085207;28;19920;-81
2023/05/18 10:09:33;;;;;;;;;;;;;;;;;;5086646;28;19932;-79
2023/05/18 10:12:00;;;;;;;;;;;;;;;;;;5084501;28;19920;-80
2023/05/18 10:14:34;;;;;;;;;;;;;;;;;;5085588;28;19923;-79
2023/05/18 10:17:02;;;;;;;;;;;;;;;;;;5089166;28;19946;-79
2023/05/18 10:19:29;;;;;;;;;;;;;;;;;;5083914;28;19927;-80
2023/05/18 10:21:58;;;;;;;;;;;;;;;;;;5084223;28;19943;-78
2023/05/18 10:24:26;;;;;;;;;;;;;;;;;;5083260;28;19925;-79
2023/05/18 10:26:58;;;;;;;;;;;;;;;;;;5080124;28;19935;-80
2023/05/18 10:29:31;;;;;;;;;;;;;;;;;;5084290;28;19920;-80
2023/05/18 10:32:01;;;;;;;;;;;;;;;;;;5094444;28;19963;-79
2023/05/18 10:34:34;;;;;;;;;;;;;;;;;;5087038;28;19929;-79
2023/05/18 10:37:03;;;;;;;;;;;;;;;;;;5087603;28;19920;-79
2023/05/18 10:39:30;;;;;;;;;;;;;;;;;;5080911;28;19920;-79
2023/05/18 10:41:58;;;;;;;;;;;;;;;;;;5084495;28;20276;-79
2023/05/18 10:44:25;;;;;;;;;;;;;;;;;;5083287;28;19924;-79
2023/05/18 10:46:58;;;;;;;;;;;;;;;;;;5082479;28;19928;-80
2023/05/18 10:49:25;;;;;;;;;;;;;;;;;;5087674;28;19924;-80
2023/05/18 10:51:53;;;;;;;;;;;;;;;;;;5091181;28;19924;-79
2023/05/18 10:54:20;;;;;;;;;;;;;;;;;;5084131;28;19920;-78
2023/05/18 10:56:49;;;;;;;;;;;;;;;;;;5097945;27;20368;-78
2023/05/18 10:59:17;;;;;;;;;;;;;;;;;;5085410;28;19927;-79
2023/05/18 11:01:44;;;;;;;;;;;;;;;;;;5082502;28;19951;-78
2023/05/18 11:04:17;;;;;;;;;;;;;;;;;;5082362;28;19928;-79
2023/05/18 11:06:50;;;;;;;;;;;;;;;;;;5084055;28;19931;-79
2023/05/18 11:09:18;;;;;;;;;;;;;;;;;;5097719;28;19927;-79
2023/05/18 11:11:45;;;;;;;;;;;;;;;;;;5086283;28;19927;-81
2023/05/18 11:14:13;;;;;;;;;;;;;;;;;;5084773;28;19920;-83
2023/05/18 11:16:40;;;;;;;;;;;;;;;;;;5098125;27;20292;-83
2023/05/18 11:19:10;;;;;;;;;;;;;;;;;;5077894;28;19927;-82
2023/05/18 11:21:40;;;;;;;;;;;;;;;;;;5090033;28;20486;-84
2023/05/18 11:24:07;;;;;;;;;;;;;;;;;;5083460;28;19927;-81
2023/05/18 11:26:35;;;;;;;;;;;;;;;;;;5079241;28;19935;-78
2023/05/18 11:29:02;;;;;;;;;;;;;;;;;;5080423;28;19924;-79
2023/05/18 11:31:35;;;;;;;;;;;;;;;;;;5084838;28;19927;-80
2023/05/18 11:34:02;;;;;;;;;;;;;;;;;;5077193;28;19943;-79
2023/05/18 11:36:31;;;;;;;;;;;;;;;;;;5082492;28;19920;-79
2023/05/18 11:38:59;;;;;;;;;;;;;;;;;;5083548;28;19920;-82
2023/05/18 11:41:26;;;;;;;;;;;;;;;;;;5087059;28;19921;-79
2023/05/18 11:43:59;;;;;;;;;;;;;;;;;;5086487;28;19921;-79
2023/05/18 11:46:27;;;;;;;;;;;;;;;;;;5081792;28;19924;-78
2023/05/18 11:48:54;;;;;;;;;;;;;;;;;;5080370;28;19931;-78
2023/05/18 11:51:24;;;;;;;;;;;;;;;;;;5077612;28;19920;-77
2023/05/18 11:53:56;;;;;;;;;;;;;;;;;;5077261;28;19928;-81
2023/05/18 11:56:24;;;;;;;;;;;;;;;;;;5077911;28;19924;-78
2023/05/18 11:58:56;;;;;;;;;;;;;;;;;;5080573;28;19927;-79
2023/05/18 12:01:29;;;;;;;;;;;;;;;;;;5081387;28;20511;-79
2023/05/18 12:03:57;;;;;;;;;;;;;;;;;;5080041;28;19920;-80
2023/05/18 12:06:24;;;;;;;;;;;;;;;;;;5078974;28;20320;-76
2023/05/18 12:08:52;;;;;;;;;;;;;;;;;;5093341;28;19928;-76
2023/05/18 12:11:20;;;;;;;;;;;;;;;;;;5081505;28;19924;-79
2023/05/18 12:13:50;;;;;;;;;;;;;;;;;;5077260;28;19931;-78
2023/05/18 12:16:22;;;;;;;;;;;;;;;;;;5079565;28;19949;-79
2023/05/18 12:18:50;;;;;;;;;;;;;;;;;;5078704;28;19927;-79
2023/05/18 12:21:23;;;;;;;;;;;;;;;;;;5084557;27;19924;-78
2023/05/18 12:23:51;;;;;;;;;;;;;;;;;;5074555;28;21125;-80
2023/05/18 12:26:21;;;;;;;;;;;;;;;;;;5060965;28;19928;-78
2023/05/18 12:28:54;;;;;;;;;;;;;;;;;;5064146;28;20538;-80
2023/05/18 12:31:26;;;;;;;;;;;;;;;;;;5066315;28;19923;-80
2023/05/18 12:33:54;;;;;;;;;;;;;;;;;;5064070;28;19935;-79
2023/05/18 12:36:27;;;;;;;;;;;;;;;;;;5058903;28;19923;-81
2023/05/18 12:38:54;;;;;;;;;;;;;;;;;;5065230;28;20675;-81
2023/05/18 12:41:27;;;;;;;;;;;;;;;;;;5062924;28;19946;-80
2023/05/18 12:43:59;;;;;;;;;;;;;;;;;;5068056;28;20676;-80
2023/05/18 12:46:27;;;;;;;;;;;;;;;;;;5067195;28;19939;-80
2023/05/18 12:49:00;;;;;;;;;;;;;;;;;;5074985;28;20785;-82
2023/05/18 12:51:33;;;;;;;;;;;;;;;;;;5064328;28;20895;-80
2023/05/18 12:54:01;;;;;;;;;;;;;;;;;;5061489;28;19928;-80
2023/05/18 12:56:29;;;;;;;;;;;;;;;;;;5063452;28;20579;-78
2023/05/18 12:58:57;;;;;;;;;;;;;;;;;;5061337;28;20467;-81
2023/05/18 13:01:24;;;;;;;;;;;;;;;;;;5064236;28;19928;-80
2023/05/18 13:03:57;;;;;;;;;;;;;;;;;;5061090;28;20546;-79
2023/05/18 13:06:31;;;;;;;;;;;;;;;;;;5064492;28;19935;-79
2023/05/18 13:09:04;;;;;;;;;;;;;;;;;;5064114;28;20599;-79
2023/05/18 13:11:32;;;;;;;;;;;;;;;;;;5064576;28;19935;-80
2023/05/18 13:14:04;;;;;;;;;;;;;;;;;;5061916;28;19931;-80
2023/05/18 13:16:32;;;;;;;;;;;;;;;;;;5062620;28;19935;-81
2023/05/18 13:18:59;;;;;;;;;;;;;;;;;;5064136;28;19928;-82
2023/05/18 13:21:27;;;;;;;;;;;;;;;;;;5060782;28;20485;-78
2023/05/18 13:23:59;;;;;;;;;;;;;;;;;;5065436;28;20013;-78
2023/05/18 13:26:27;;;;;;;;;;;;;;;;;;5055584;28;21304;-79
2023/05/18 13:28:55;;;;;;;;;;;;;;;;;;5063200;28;19928;-78
2023/05/18 13:31:22;;;;;;;;;;;;;;;;;;5060003;28;19928;-78
2023/05/18 13:33:50;;;;;;;;;;;;;;;;;;5071908;28;20749;-80
2023/05/18 13:36:18;;;;;;;;;;;;;;;;;;5062543;28;19920;-79
2023/05/18 13:38:45;;;;;;;;;;;;;;;;;;5061833;28;19935;-77
2023/05/18 13:41:18;;;;;;;;;;;;;;;;;;5067766;28;21410;-77
2023/05/18 13:43:50;;;;;;;;;;;;;;;;;;5057846;28;19928;-80
2023/05/18 13:46:23;;;;;;;;;;;;;;;;;;5061241;28;19928;-79
2023/05/18 13:48:50;;;;;;;;;;;;;;;;;;5080875;28;19935;-80
2023/05/18 13:51:18;;;;;;;;;;;;;;;;;;5068061;28;19928;-79
2023/05/18 13:53:50;;;;;;;;;;;;;;;;;;5060895;28;20455;-80
2023/05/18 13:56:23;;;;;;;;;;;;;;;;;;5060871;28;19928;-80
2023/05/18 13:58:51;;;;;;;;;;;;;;;;;;5056430;28;20538;-81
2023/05/18 14:01:21;;;;;;;;;;;;;;;;;;5063171;28;20802;-80
2023/05/18 14:03:48;;;;;;;;;;;;;;;;;;5057890;28;19928;-81
2023/05/18 14:06:16;;;;;;;;;;;;;;;;;;5058485;28;19928;-79
2023/05/18 14:08:43;;;;;;;;;;;;;;;;;;5055662;28;19940;-79
2023/05/18 14:11:11;;;;;;;;;;;;;;;;;;5055796;28;19927;-80
2023/05/18 14:13:38;;;;;;;;;;;;;;;;;;5052736;28;19927;-80
2023/05/18 14:16:06;;;;;;;;;;;;;;;;;;5065656;28;20289;-78
2023/05/18 14:18:33;;;;;;;;;;;;;;;;;;5066489;28;19920;-80
2023/05/18 14:21:06;;;;;;;;;;;;;;;;;;5063916;28;20743;-80
2023/05/18 14:23:34;;;;;;;;;;;;;;;;;;5066059;28;19927;-79
2023/05/18 14:26:02;;;;;;;;;;;;;;;;;;5061554;28;20557;-79
2023/05/18 14:28:30;;;;;;;;;;;;;;;;;;5057275;28;19928;-79
2023/05/18 14:30:58;;;;;;;;;;;;;;;;;;5059386;28;20787;-79
2023/05/18 14:33:25;;;;;;;;;;;;;;;;;;5059380;28;20006;-80
2023/05/18 14:35:54;;;;;;;;;;;;;;;;;;5062117;28;19935;-80
2023/05/18 14:38:25;;;;;;;;;;;;;;;;;;5061695;28;19928;-79
2023/05/18 14:40:53;;;;;;;;;;;;;;;;;;5079414;28;21034;-81
2023/05/18 14:43:20;;;;;;;;;;;;;;;;;;5064257;28;19928;-80
2023/05/18 14:45:53;;;;;;;;;;;;;;;;;;5063813;28;21502;-77
2023/05/18 14:48:21;;;;;;;;;;;;;;;;;;5065494;28;20007;-79
2023/05/18 14:50:48;;;;;;;;;;;;;;;;;;5059126;28;19935;-80
2023/05/18 14:53:16;;;;;;;;;;;;;;;;;;5065350;28;20583;-80
2023/05/18 14:55:43;;;;;;;;;;;;;;;;;;5063994;28;19990;-80
2023/05/18 14:58:13;;;;;;;;;;;;;;;;;;5064510;28;19928;-80
2023/05/18 15:00:41;;;;;;;;;;;;;;;;;;5048651;28;21208;-80
2023/05/18 15:03:08;;;;;;;;;;;;;;;;;;5062712;28;19940;-78
2023/05/18 15:05:37;;;;;;;;;;;;;;;;;;5064028;28;19938;-77
2023/05/18 15:08:04;;;;;;;;;;;;;;;;;;5073666;28;19919;-80
2023/05/18 15:10:37;;;;;;;;;;;;;;;;;;5065342;28;19932;-78
2023/05/18 15:13:10;;;;;;;;;;;;;;;;;;5064562;28;19928;-80
2023/05/18 15:15:38;;;;;;;;;;;;;;;;;;5067985;28;19935;-80
2023/05/18 15:18:11;;;;;;;;;;;;;;;;;;5069678;28;20737;-80
2023/05/18 15:20:41;;;;;;;;;;;;;;;;;;5062779;28;19936;-80
2023/05/18 15:23:13;;;;;;;;;;;;;;;;;;5075755;27;19935;-80
2023/05/18 15:25:41;;;;;;;;;;;;;;;;;;5059717;28;19935;-80
2023/05/18 15:28:09;;;;;;;;;;;;;;;;;;5060708;28;19928;-80
2023/05/18 15:30:37;;;;;;;;;;;;;;;;;;5062319;28;20303;-81
2023/05/18 15:33:05;;;;;;;;;;;;;;;;;;5071321;28;19928;-78
2023/05/18 15:35:35;;;;;;;;;;;;;;;;;;5060923;28;19935;-79
2023/05/18 15:38:07;;;;;;;;;;;;;;;;;;5063546;28;19928;-79
2023/05/18 15:40:35;;;;;;;;;;;;;;;;;;5061960;28;19928;-78
2023/05/18 15:43:07;;;;;;;;;;;;;;;;;;5062862;28;19931;-79
2023/05/18 15:45:35;;;;;;;;;;;;;;;;;;5062127;28;19934;-80
2023/05/18 15:48:03;;;;;;;;;;;;;;;;;;5063239;28;19920;-80
2023/05/18 15:50:31;;;;;;;;;;;;;;;;;;5063790;28;19920;-80
2023/05/18 15:52:58;;;;;;;;;;;;;;;;;;5061660;28;20209;-79
2023/05/18 15:55:26;;;;;;;;;;;;;;;;;;5063425;28;19931;-79
2023/05/18 15:57:53;;;;;;;;;;;;;;;;;;5062881;28;19935;-81
2023/05/18 16:00:22;;;;;;;;;;;;;;;;;;5047021;28;19935;-80
2023/05/18 16:02:55;;;;;;;;;;;;;;;;;;5039146;28;19928;-80
2023/05/18 16:05:22;;;;;;;;;;;;;;;;;;5042345;28;19928;-79
2023/05/18 16:07:50;;;;;;;;;;;;;;;;;;5047696;28;19928;-79
2023/05/18 16:10:22;;;;;;;;;;;;;;;;;;5044448;28;19928;-79
2023/05/18 16:12:50;;;;;;;;;;;;;;;;;;5038450;28;19928;-79
2023/05/18 16:15:23;;;;;;;;;;;;;;;;;;5039625;28;19936;-80
2023/05/18 16:17:51;;;;;;;;;;;;;;;;;;5041970;28;19928;-81
2023/05/18 16:20:19;;;;;;;;;;;;;;;;;;5040304;28;19928;-81
2023/05/18 16:22:48;;;;;;;;;;;;;;;;;;5042197;28;19936;-80
2023/05/18 16:25:20;;;;;;;;;;;;;;;;;;5041714;28;19928;-80
2023/05/18 16:27:48;;;;;;;;;;;;;;;;;;5041655;28;19936;-78
2023/05/18 16:30:20;;;;;;;;;;;;;;;;;;5045328;28;19928;-78
2023/05/18 16:32:48;;;;;;;;;;;;;;;;;;5047874;28;19929;-80
2023/05/18 16:35:15;;;;;;;;;;;;;;;;;;5041701;28;19932;-79
2023/05/18 16:37:43;;;;;;;;;;;;;;;;;;5042990;28;19928;-81
2023/05/18 16:40:10;;;;;;;;;;;;;;;;;;5047384;28;19963;-79
2023/05/18 16:42:38;;;;;;;;;;;;;;;;;;5042755;28;19935;-81
2023/05/18 16:45:05;;;;;;;;;;;;;;;;;;5043749;28;19928;-80
2023/05/18 16:47:33;;;;;;;;;;;;;;;;;;5041358;28;19920;-78
2023/05/18 16:50:05;;;;;;;;;;;;;;;;;;5043151;28;20373;-81
2023/05/18 16:52:33;;;;;;;;;;;;;;;;;;5037853;28;19935;-81
2023/05/18 16:55:06;;;;;;;;;;;;;;;;;;5041240;28;20900;-79
2023/05/18 16:57:33;;;;;;;;;;;;;;;;;;5036228;28;19935;-80